PWSweather.com
Personal Weather Stations
Station Observations
ISANTACA4
Capoeiras Weather Station, Florianopolis, SC 88070450

Capoeiras Weather StationFlorianopolis, SC 88070450

Lat: -27.596, Lon: -48.588

Elevation: 133

Station Type: Oregon WMR 928NX

Latest ConditionsUpdated 9:15:00 PM GMT-03:57 Friday, Aug 1, 2014
Currently Today's Max Today's Min Today's Average
Temperature 65.8°F18.8°C 73.6°F23.1°C 63.0°F17.2°C 66.7°F19.3°C
Dew Point 62.8°F17.1°C 66.3°F19.1°C 60.3°F15.7°C 62.8°F17.1°C
Winds 7.0 mph SW11.3 kmh SW 13.0 mph SSW20.9 kmh SSW - 6.5 mph 10.5 kmh
Wind Gusts 11.0 mph17.7 kmh 33.0 mph53.1 kmh - -
Humidity 90% 92% 77% 88%
Pressure 30.11 in1019.6 mb 30.11 in1019.6 mb 29.95 in1014.2 mb -
Precipitation - 0.18 in4.6 mm - -
Hour Temp Dew Point Humidity Winds Wind Gusts Pressure Precip Precip Rate Daily Precip Total
09:15 PM 65.8°F18.8°C 62.8°F17.1°C 90% 7.0 mph SW11.3 kmh SW 11.0 mph17.7 kmh 30.11 in1019.6 mb 0.11 in2.8 mm 0.36 in/hr9.1 mm/hr 0.18 in4.6 mm
09:00 PM 66.6°F19.2°C 62.9°F17.2°C 88% 8.0 mph SSW12.9 kmh SSW 18.0 mph29.0 kmh 30.08 in1018.6 mb 0.02 in0.5 mm 0.03 in/hr0.8 mm/hr 0.09 in2.3 mm
08:45 PM 66.9°F19.4°C 62.6°F17.0°C 86% 9.0 mph S14.5 kmh S 23.0 mph37.0 kmh 30.08 in1018.6 mb 0.00 in0.0 mm 0.00 in/hr0.0 mm/hr 0.07 in1.8 mm
08:30 PM 66.9°F19.4°C 62.6°F17.0°C 86% 9.0 mph S14.5 kmh S 22.0 mph35.4 kmh 30.08 in1018.6 mb 0.00 in0.0 mm 0.00 in/hr0.0 mm/hr 0.07 in1.8 mm
08:15 PM 66.9°F19.4°C 62.6°F17.0°C 86% 9.0 mph S14.5 kmh S 21.0 mph33.8 kmh 30.08 in1018.6 mb 0.00 in0.0 mm 0.00 in/hr0.0 mm/hr 0.07 in1.8 mm
08:00 PM 66.7°F19.3°C 62.7°F17.1°C 87% 7.0 mph S11.3 kmh S 20.0 mph32.2 kmh 30.08 in1018.6 mb 0.00 in0.0 mm 0.00 in/hr0.0 mm/hr 0.07 in1.8 mm
07:45 PM 66.9°F19.4°C 62.6°F17.0°C 86% 9.0 mph SSW14.5 kmh SSW 18.0 mph29.0 kmh 30.08 in1018.6 mb 0.01 in0.3 mm 0.00 in/hr0.0 mm/hr 0.07 in1.8 mm
07:30 PM 66.9°F19.4°C 62.6°F17.0°C 86% 13.0 mph SSW20.9 kmh SSW 24.0 mph38.6 kmh 30.07 in1018.3 mb 0.07 in1.8 mm 0.00 in/hr0.0 mm/hr 0.07 in1.8 mm
07:15 PM 66.4°F19.1°C 62.7°F17.1°C 88% 11.0 mph S17.7 kmh S 27.0 mph43.5 kmh 30.06 in1017.9 mb 0.07 in1.8 mm 0.00 in/hr0.0 mm/hr 0.07 in1.8 mm
07:00 PM 66.6°F19.2°C 62.9°F17.2°C 88% 11.0 mph SSW17.7 kmh SSW 25.0 mph40.2 kmh 30.06 in1017.9 mb 0.07 in1.8 mm 0.01 in/hr0.3 mm/hr 0.07 in1.8 mm
06:45 PM 69.1°F20.6°C 63.7°F17.6°C 83% 11.0 mph SSW17.7 kmh SSW 26.0 mph41.8 kmh 30.07 in1018.3 mb 0.06 in1.5 mm 0.24 in/hr6.1 mm/hr 0.06 in1.5 mm
06:30 PM 70.0°F21.1°C 62.4°F16.9°C 77% 12.0 mph SSW19.3 kmh SSW 33.0 mph53.1 kmh 30.06 in1017.9 mb 0.00 in0.0 mm 0.00 in/hr0.0 mm/hr 0.00 in0.0 mm
06:15 PM 68.2°F20.1°C 64.5°F18.1°C 88% 4.0 mph S6.4 kmh S 19.0 mph30.6 kmh 30.05 in1017.6 mb 0.00 in0.0 mm 0.00 in/hr0.0 mm/hr 0.00 in0.0 mm
06:00 PM 67.6°F19.8°C 64.6°F18.1°C 90% 4.0 mph NE6.4 kmh NE 9.0 mph14.5 kmh 30.03 in1016.9 mb 0.00 in0.0 mm 0.00 in/hr0.0 mm/hr 0.00 in0.0 mm
05:45 PM 67.6°F19.8°C 64.6°F18.1°C 90% 8.0 mph NE12.9 kmh NE 13.0 mph20.9 kmh 29.97 in1014.9 mb 0.00 in0.0 mm 0.00 in/hr0.0 mm/hr 0.00 in0.0 mm
05:30 PM 68.0°F20.0°C 64.6°F18.1°C 89% 8.0 mph NE12.9 kmh NE 13.0 mph20.9 kmh 29.97 in1014.9 mb 0.00 in0.0 mm 0.00 in/hr0.0 mm/hr 0.00 in0.0 mm
05:15 PM 68.5°F20.3°C 65.2°F18.4°C 89% 7.0 mph NE11.3 kmh NE 13.0 mph20.9 kmh 29.96 in1014.6 mb 0.00 in0.0 mm 0.00 in/hr0.0 mm/hr 0.00 in0.0 mm
05:00 PM 69.1°F20.6°C 65.4°F18.6°C 88% 8.0 mph NE12.9 kmh NE 13.0 mph20.9 kmh 29.96 in1014.6 mb 0.00 in0.0 mm 0.00 in/hr0.0 mm/hr 0.00 in0.0 mm
04:45 PM 69.4°F20.8°C 65.4°F18.6°C 87% 7.0 mph NE11.3 kmh NE 15.0 mph24.1 kmh 29.96 in1014.6 mb 0.00 in0.0 mm 0.00 in/hr0.0 mm/hr 0.00 in0.0 mm
04:30 PM 69.6°F20.9°C 65.6°F18.7°C 87% 7.0 mph NE11.3 kmh NE 14.0 mph22.5 kmh 29.95 in1014.2 mb 0.00 in0.0 mm 0.00 in/hr0.0 mm/hr 0.00 in0.0 mm
04:15 PM 69.6°F20.9°C 65.6°F18.7°C 87% 7.0 mph NE11.3 kmh NE 16.0 mph25.7 kmh 29.95 in1014.2 mb 0.00 in0.0 mm 0.00 in/hr0.0 mm/hr 0.00 in0.0 mm
04:00 PM 69.6°F20.9°C 65.6°F18.7°C 87% 7.0 mph NE11.3 kmh NE 13.0 mph20.9 kmh 29.96 in1014.6 mb 0.00 in0.0 mm 0.00 in/hr0.0 mm/hr 0.00 in0.0 mm
03:45 PM 69.3°F20.7°C 65.6°F18.7°C 88% 8.0 mph NE12.9 kmh NE 18.0 mph29.0 kmh 29.95 in1014.2 mb 0.00 in0.0 mm 0.00 in/hr0.0 mm/hr 0.00 in0.0 mm
03:30 PM 69.1°F20.6°C 65.4°F18.6°C 88% 9.0 mph ENE14.5 kmh ENE 16.0 mph25.7 kmh 29.96 in1014.6 mb 0.00 in0.0 mm 0.00 in/hr0.0 mm/hr 0.00 in0.0 mm
03:15 PM 69.3°F20.7°C 65.2°F18.4°C 87% 7.0 mph NE11.3 kmh NE 15.0 mph24.1 kmh 29.96 in1014.6 mb 0.00 in0.0 mm 0.00 in/hr0.0 mm/hr 0.00 in0.0 mm
03:00 PM 69.3°F20.7°C 65.2°F18.4°C 87% 8.0 mph ENE12.9 kmh ENE 16.0 mph25.7 kmh 29.97 in1014.9 mb 0.00 in0.0 mm 0.00 in/hr0.0 mm/hr 0.00 in0.0 mm
02:45 PM 69.8°F21.0°C 65.1°F18.4°C 85% 9.0 mph ENE14.5 kmh ENE 17.0 mph27.4 kmh 29.97 in1014.9 mb 0.00 in0.0 mm 0.00 in/hr0.0 mm/hr 0.00 in0.0 mm
02:30 PM 70.3°F21.3°C 65.3°F18.5°C 84% 9.0 mph NE14.5 kmh NE 17.0 mph27.4 kmh 29.97 in1014.9 mb 0.00 in0.0 mm 0.00 in/hr0.0 mm/hr 0.00 in0.0 mm
02:15 PM 71.2°F21.8°C 65.5°F18.6°C 82% 9.0 mph NE14.5 kmh NE 18.0 mph29.0 kmh 29.97 in1014.9 mb 0.00 in0.0 mm 0.00 in/hr0.0 mm/hr 0.00 in0.0 mm
02:00 PM 72.3°F22.4°C 65.8°F18.8°C 80% 8.0 mph NE12.9 kmh NE 16.0 mph25.7 kmh 29.97 in1014.9 mb 0.00 in0.0 mm 0.00 in/hr0.0 mm/hr 0.00 in0.0 mm
01:45 PM 73.4°F23.0°C 66.1°F18.9°C 78% 9.0 mph NE14.5 kmh NE 16.0 mph25.7 kmh 29.98 in1015.2 mb 0.00 in0.0 mm 0.00 in/hr0.0 mm/hr 0.00 in0.0 mm
01:30 PM 72.9°F22.7°C 66.0°F18.9°C 79% 7.0 mph NE11.3 kmh NE 14.0 mph22.5 kmh 29.98 in1015.2 mb 0.00 in0.0 mm 0.00 in/hr0.0 mm/hr 0.00 in0.0 mm
01:15 PM 72.3°F22.4°C 65.8°F18.8°C 80% 7.0 mph NE11.3 kmh NE 13.0 mph20.9 kmh 29.99 in1015.6 mb 0.00 in0.0 mm 0.00 in/hr0.0 mm/hr 0.00 in0.0 mm
01:00 PM 72.9°F22.7°C 65.6°F18.7°C 78% 7.0 mph NE11.3 kmh NE 14.0 mph22.5 kmh 29.99 in1015.6 mb 0.00 in0.0 mm 0.00 in/hr0.0 mm/hr 0.00 in0.0 mm
12:45 PM 73.6°F23.1°C 66.3°F19.1°C 78% 7.0 mph NE11.3 kmh NE 11.0 mph17.7 kmh 30.00 in1015.9 mb 0.00 in0.0 mm 0.00 in/hr0.0 mm/hr 0.00 in0.0 mm
12:30 PM 72.9°F22.7°C 66.0°F18.9°C 79% 7.0 mph ENE11.3 kmh ENE 14.0 mph22.5 kmh 30.01 in1016.3 mb 0.00 in0.0 mm 0.00 in/hr0.0 mm/hr 0.00 in0.0 mm
12:15 PM 72.0°F22.2°C 65.5°F18.6°C 80% 6.0 mph NE9.7 kmh NE 12.0 mph19.3 kmh 30.01 in1016.3 mb 0.00 in0.0 mm 0.00 in/hr0.0 mm/hr 0.00 in0.0 mm
12:00 PM 71.1°F21.7°C 64.9°F18.3°C 81% 6.0 mph NE9.7 kmh NE 9.0 mph14.5 kmh 30.02 in1016.6 mb 0.00 in0.0 mm 0.00 in/hr0.0 mm/hr 0.00 in0.0 mm
11:45 AM 71.1°F21.7°C 64.6°F18.1°C 80% 8.0 mph NE12.9 kmh NE 14.0 mph22.5 kmh 30.03 in1016.9 mb 0.00 in0.0 mm 0.00 in/hr0.0 mm/hr 0.00 in0.0 mm
11:30 AM 70.3°F21.3°C 64.6°F18.1°C 82% 8.0 mph NE12.9 kmh NE 15.0 mph24.1 kmh 30.03 in1016.9 mb 0.00 in0.0 mm 0.00 in/hr0.0 mm/hr 0.00 in0.0 mm
11:15 AM 69.1°F20.6°C 64.0°F17.8°C 84% 6.0 mph NE9.7 kmh NE 13.0 mph20.9 kmh 30.04 in1017.3 mb 0.00 in0.0 mm 0.00 in/hr0.0 mm/hr 0.00 in0.0 mm
11:00 AM 69.1°F20.6°C 64.0°F17.8°C 84% 5.0 mph NE8.0 kmh NE 12.0 mph19.3 kmh 30.05 in1017.6 mb 0.00 in0.0 mm 0.00 in/hr0.0 mm/hr 0.00 in0.0 mm
10:45 AM 69.1°F20.6°C 64.0°F17.8°C 84% 5.0 mph NNE8.0 kmh NNE 10.0 mph16.1 kmh 30.06 in1017.9 mb 0.00 in0.0 mm 0.00 in/hr0.0 mm/hr 0.00 in0.0 mm
10:30 AM 69.4°F20.8°C 64.0°F17.8°C 83% 6.0 mph NE9.7 kmh NE 11.0 mph17.7 kmh 30.05 in1017.6 mb 0.00 in0.0 mm 0.00 in/hr0.0 mm/hr 0.00 in0.0 mm
10:15 AM 69.3°F20.7°C 63.9°F17.7°C 83% 7.0 mph NE11.3 kmh NE 14.0 mph22.5 kmh 30.05 in1017.6 mb 0.00 in0.0 mm 0.00 in/hr0.0 mm/hr 0.00 in0.0 mm
10:00 AM 68.2°F20.1°C 63.5°F17.5°C 85% 4.0 mph NNE6.4 kmh NNE 11.0 mph17.7 kmh 30.05 in1017.6 mb 0.00 in0.0 mm 0.00 in/hr0.0 mm/hr 0.00 in0.0 mm
09:45 AM 66.9°F19.4°C 62.3°F16.8°C 85% 7.0 mph NE11.3 kmh NE 14.0 mph22.5 kmh 30.06 in1017.9 mb 0.00 in0.0 mm 0.00 in/hr0.0 mm/hr 0.00 in0.0 mm
09:30 AM 66.9°F19.4°C 62.3°F16.8°C 85% 7.0 mph NE11.3 kmh NE 15.0 mph24.1 kmh 30.06 in1017.9 mb 0.00 in0.0 mm 0.00 in/hr0.0 mm/hr 0.00 in0.0 mm
09:15 AM 65.8°F18.8°C 61.5°F16.4°C 86% 6.0 mph NNE9.7 kmh NNE 13.0 mph20.9 kmh 30.06 in1017.9 mb 0.00 in0.0 mm 0.00 in/hr0.0 mm/hr 0.00 in0.0 mm
09:00 AM 64.9°F18.3°C 61.0°F16.1°C 87% 5.0 mph N8.0 kmh N 13.0 mph20.9 kmh 30.06 in1017.9 mb 0.00 in0.0 mm 0.00 in/hr0.0 mm/hr 0.00 in0.0 mm
08:45 AM 64.8°F18.2°C 60.8°F16.0°C 87% 5.0 mph N8.0 kmh N 11.0 mph17.7 kmh 30.06 in1017.9 mb 0.00 in0.0 mm 0.00 in/hr0.0 mm/hr 0.00 in0.0 mm
08:30 AM 64.8°F18.2°C 61.1°F16.2°C 88% 6.0 mph N9.7 kmh N 11.0 mph17.7 kmh 30.05 in1017.6 mb 0.00 in0.0 mm 0.00 in/hr0.0 mm/hr 0.00 in0.0 mm
08:15 AM 64.0°F17.8°C 61.0°F16.1°C 90% 6.0 mph N9.7 kmh N 13.0 mph20.9 kmh 30.05 in1017.6 mb 0.00 in0.0 mm 0.00 in/hr0.0 mm/hr 0.00 in0.0 mm
08:00 AM 63.3°F17.4°C 60.6°F15.9°C 91% 6.0 mph NNE9.7 kmh NNE 13.0 mph20.9 kmh 30.05 in1017.6 mb 0.00 in0.0 mm 0.00 in/hr0.0 mm/hr 0.00 in0.0 mm
07:45 AM 63.3°F17.4°C 60.3°F15.7°C 90% 7.0 mph N11.3 kmh N 13.0 mph20.9 kmh 30.05 in1017.6 mb 0.00 in0.0 mm 0.00 in/hr0.0 mm/hr 0.00 in0.0 mm
07:30 AM 63.1°F17.3°C 60.5°F15.8°C 91% 6.0 mph N9.7 kmh N 11.0 mph17.7 kmh 30.05 in1017.6 mb 0.00 in0.0 mm 0.00 in/hr0.0 mm/hr 0.00 in0.0 mm
07:15 AM 63.0°F17.2°C 60.3°F15.7°C 91% 7.0 mph N11.3 kmh N 15.0 mph24.1 kmh 30.05 in1017.6 mb 0.00 in0.0 mm 0.00 in/hr0.0 mm/hr 0.00 in0.0 mm
07:00 AM 63.0°F17.2°C 60.3°F15.7°C 91% 7.0 mph N11.3 kmh N 13.0 mph20.9 kmh 30.05 in1017.6 mb 0.00 in0.0 mm 0.00 in/hr0.0 mm/hr 0.00 in0.0 mm
06:45 AM 63.0°F17.2°C 60.3°F15.7°C 91% 6.0 mph N9.7 kmh N 11.0 mph17.7 kmh 30.05 in1017.6 mb 0.00 in0.0 mm 0.00 in/hr0.0 mm/hr 0.00 in0.0 mm
06:30 AM 63.1°F17.3°C 60.5°F15.8°C 91% 5.0 mph N8.0 kmh N 11.0 mph17.7 kmh 30.05 in1017.6 mb 0.00 in0.0 mm 0.00 in/hr0.0 mm/hr 0.00 in0.0 mm
06:15 AM 63.1°F17.3°C 60.8°F16.0°C 92% 4.0 mph N6.4 kmh N 10.0 mph16.1 kmh 30.05 in1017.6 mb 0.00 in0.0 mm 0.00 in/hr0.0 mm/hr 0.00 in0.0 mm
06:00 AM 63.1°F17.3°C 60.8°F16.0°C 92% 5.0 mph N8.0 kmh N 11.0 mph17.7 kmh 30.05 in1017.6 mb 0.00 in0.0 mm 0.00 in/hr0.0 mm/hr 0.00 in0.0 mm
05:45 AM 63.1°F17.3°C 60.8°F16.0°C 92% 5.0 mph N8.0 kmh N 10.0 mph16.1 kmh 30.04 in1017.3 mb 0.00 in0.0 mm 0.00 in/hr0.0 mm/hr 0.00 in0.0 mm
05:30 AM 63.1°F17.3°C 60.8°F16.0°C 92% 4.0 mph N6.4 kmh N 10.0 mph16.1 kmh 30.04 in1017.3 mb 0.00 in0.0 mm 0.00 in/hr0.0 mm/hr 0.00 in0.0 mm
05:15 AM 63.3°F17.4°C 61.0°F16.1°C 92% 4.0 mph N6.4 kmh N 11.0 mph17.7 kmh 30.04 in1017.3 mb 0.00 in0.0 mm 0.00 in/hr0.0 mm/hr 0.00 in0.0 mm
05:00 AM 63.1°F17.3°C 60.8°F16.0°C 92% 5.0 mph N8.0 kmh N 10.0 mph16.1 kmh 30.04 in1017.3 mb 0.00 in0.0 mm 0.00 in/hr0.0 mm/hr 0.00 in0.0 mm
04:45 AM 63.1°F17.3°C 60.8°F16.0°C 92% 5.0 mph N8.0 kmh N 10.0 mph16.1 kmh 30.04 in1017.3 mb 0.00 in0.0 mm 0.00 in/hr0.0 mm/hr 0.00 in0.0 mm
04:30 AM 63.1°F17.3°C 60.8°F16.0°C 92% 5.0 mph N8.0 kmh N 10.0 mph16.1 kmh 30.04 in1017.3 mb 0.00 in0.0 mm 0.00 in/hr0.0 mm/hr 0.00 in0.0 mm
04:15 AM 63.3°F17.4°C 61.0°F16.1°C 92% 5.0 mph N8.0 kmh N 11.0 mph17.7 kmh 30.04 in1017.3 mb 0.00 in0.0 mm 0.00 in/hr0.0 mm/hr 0.00 in0.0 mm
04:00 AM 63.1°F17.3°C 60.8°F16.0°C 92% 5.0 mph N8.0 kmh N 12.0 mph19.3 kmh 30.04 in1017.3 mb 0.00 in0.0 mm 0.00 in/hr0.0 mm/hr 0.00 in0.0 mm
03:45 AM 63.0°F17.2°C 60.6°F15.9°C 92% 3.0 mph N4.8 kmh N 9.0 mph14.5 kmh 30.04 in1017.3 mb 0.00 in0.0 mm 0.00 in/hr0.0 mm/hr 0.00 in0.0 mm
03:30 AM 63.0°F17.2°C 60.6°F15.9°C 92% 3.0 mph N4.8 kmh N 10.0 mph16.1 kmh 30.05 in1017.6 mb 0.00 in0.0 mm 0.00 in/hr0.0 mm/hr 0.00 in0.0 mm
03:15 AM 63.0°F17.2°C 60.6°F15.9°C 92% 4.0 mph NNE6.4 kmh NNE 9.0 mph14.5 kmh 30.05 in1017.6 mb 0.00 in0.0 mm 0.00 in/hr0.0 mm/hr 0.00 in0.0 mm
03:00 AM 63.0°F17.2°C 60.6°F15.9°C 92% 4.0 mph NNE6.4 kmh NNE 9.0 mph14.5 kmh 30.06 in1017.9 mb 0.00 in0.0 mm 0.00 in/hr0.0 mm/hr 0.00 in0.0 mm
02:45 AM 63.1°F17.3°C 60.8°F16.0°C 92% 3.0 mph N4.8 kmh N 8.0 mph12.9 kmh 30.06 in1017.9 mb 0.00 in0.0 mm 0.00 in/hr0.0 mm/hr 0.00 in0.0 mm
02:30 AM 63.1°F17.3°C 60.8°F16.0°C 92% 3.0 mph NNE4.8 kmh NNE 8.0 mph12.9 kmh 30.06 in1017.9 mb 0.00 in0.0 mm 0.00 in/hr0.0 mm/hr 0.00 in0.0 mm
02:15 AM 63.3°F17.4°C 61.0°F16.1°C 92% 5.0 mph NNE8.0 kmh NNE 10.0 mph16.1 kmh 30.07 in1018.3 mb 0.00 in0.0 mm 0.00 in/hr0.0 mm/hr 0.00 in0.0 mm
02:00 AM 63.3°F17.4°C 61.0°F16.1°C 92% 5.0 mph N8.0 kmh N 11.0 mph17.7 kmh 30.07 in1018.3 mb 0.00 in0.0 mm 0.00 in/hr0.0 mm/hr 0.00 in0.0 mm
01:45 AM 63.5°F17.5°C 61.1°F16.2°C 92% 4.0 mph N6.4 kmh N 11.0 mph17.7 kmh 30.08 in1018.6 mb 0.00 in0.0 mm 0.00 in/hr0.0 mm/hr 0.00 in0.0 mm
01:30 AM 63.7°F17.6°C 61.3°F16.3°C 92% 4.0 mph N6.4 kmh N 11.0 mph17.7 kmh 30.08 in1018.6 mb 0.00 in0.0 mm 0.00 in/hr0.0 mm/hr 0.00 in0.0 mm
01:15 AM 63.5°F17.5°C 61.1°F16.2°C 92% 4.0 mph NNE6.4 kmh NNE 8.0 mph12.9 kmh 30.08 in1018.6 mb 0.00 in0.0 mm 0.00 in/hr0.0 mm/hr 0.00 in0.0 mm
01:00 AM 63.7°F17.6°C 61.3°F16.3°C 92% 6.0 mph NE9.7 kmh NE 10.0 mph16.1 kmh 30.08 in1018.6 mb 0.00 in0.0 mm 0.00 in/hr0.0 mm/hr 0.00 in0.0 mm
12:45 AM 63.7°F17.6°C 61.3°F16.3°C 92% 5.0 mph NNE8.0 kmh NNE 11.0 mph17.7 kmh 30.08 in1018.6 mb 0.00 in0.0 mm 0.00 in/hr0.0 mm/hr 0.00 in0.0 mm
12:30 AM 63.9°F17.7°C 61.5°F16.4°C 92% 6.0 mph NNE9.7 kmh NNE 12.0 mph19.3 kmh 30.08 in1018.6 mb 0.00 in0.0 mm 0.00 in/hr0.0 mm/hr 0.00 in0.0 mm
12:15 AM 64.0°F17.8°C 61.7°F16.5°C 92% 4.0 mph N6.4 kmh N 11.0 mph17.7 kmh 30.09 in1019.0 mb 0.00 in0.0 mm 0.00 in/hr0.0 mm/hr 0.00 in0.0 mm
12:00 AM 64.0°F17.8°C 61.7°F16.5°C 92% 4.0 mph N6.4 kmh N 9.0 mph14.5 kmh 30.09 in1019.0 mb 0.00 in0.0 mm 0.00 in/hr0.0 mm/hr 0.00 in0.0 mm